Time;durP1;ratioP1;P1;durP2;ratioP2;P2;SDS_P1;SDS_P2;PMS_P1;PMS_P2;Temp;Humidity;BMP_temperature;BMP_pressure;BME280_temperature;BME280_humidity;BME280_pressure;Samples;Min_cycle;Max_cycle;Signal;HPM_P1;HPM_P2
2023/01/29 00:00:21;;;;;;;21.65;10.80;;;14.20;50.00;;;;;;5101333;27;45403;-68
2023/01/29 00:02:49;;;;;;;22.00;11.45;;;14.20;50.00;;;;;;5103966;27;45337;-69
2023/01/29 00:05:16;;;;;;;18.92;11.55;;;14.20;50.10;;;;;;5101547;27;45484;-68
2023/01/29 00:07:43;;;;;;;19.73;11.95;;;14.20;50.20;;;;;;5101447;27;46570;-68
2023/01/29 00:10:11;;;;;;;18.42;10.68;;;14.20;50.20;;;;;;5101379;27;45422;-68
2023/01/29 00:12:38;;;;;;;18.30;11.35;;;14.20;50.10;;;;;;5098506;27;45339;-68
2023/01/29 00:15:05;;;;;;;17.85;10.85;;;14.20;50.30;;;;;;5102055;27;45286;-68
2023/01/29 00:17:32;;;;;;;22.63;11.90;;;14.20;50.30;;;;;;5100597;27;47139;-68
2023/01/29 00:20:01;;;;;;;21.90;11.23;;;14.20;50.60;;;;;;5102483;27;45454;-69
2023/01/29 00:22:29;;;;;;;19.67;11.05;;;14.30;50.60;;;;;;5096061;27;45390;-69
2023/01/29 00:24:56;;;;;;;19.17;10.95;;;14.30;50.60;;;;;;5101329;27;45380;-68
2023/01/29 00:27:23;;;;;;;17.25;11.60;;;14.30;50.40;;;;;;5099131;27;45482;-69
2023/01/29 00:30:08;;;;;;;19.15;11.45;;;14.30;50.40;;;;;;5101575;27;45426;-68
2023/01/29 00:32:35;;;;;;;20.13;11.32;;;14.30;50.20;;;;;;5099261;27;45455;-68
2023/01/29 00:35:03;;;;;;;16.75;10.82;;;14.30;49.90;;;;;;5097110;27;45508;-68
2023/01/29 00:37:30;;;;;;;25.48;11.60;;;14.30;49.90;;;;;;5100170;27;46371;-69
2023/01/29 00:39:57;;;;;;;22.80;11.00;;;14.20;49.60;;;;;;5102991;27;45292;-68
2023/01/29 00:45:10;;;;;;;20.23;10.45;;;14.20;49.80;;;;;;5098495;27;45331;-69
2023/01/29 00:47:37;;;;;;;20.52;10.60;;;14.20;49.80;;;;;;5099187;27;46648;-68
2023/01/29 00:50:07;;;;;;;18.67;11.40;;;14.20;49.90;;;;;;5102872;27;45361;-68
2023/01/29 00:52:35;;;;;;;18.63;10.48;;;14.20;49.90;;;;;;5101405;27;45496;-68
2023/01/29 00:55:02;;;;;;;18.92;10.35;;;14.20;49.60;;;;;;5091529;27;45443;-68
2023/01/29 00:57:31;;;;;;;20.30;11.48;;;14.20;49.70;;;;;;5096560;27;45424;-69
2023/01/29 00:59:58;;;;;;;18.13;10.93;;;14.20;49.90;;;;;;5097950;27;45402;-68
2023/01/29 01:05:16;;;;;;;15.85;10.48;;;14.20;49.80;;;;;;5100042;27;45415;-68
2023/01/29 01:07:44;;;;;;;17.92;10.43;;;14.20;50.00;;;;;;5100709;27;46655;-68
2023/01/29 01:10:20;;;;;;;21.08;11.40;;;14.30;50.00;;;;;;5100157;27;45418;-69
2023/01/29 01:12:47;;;;;;;21.15;10.10;;;14.30;51.30;;;;;;5099435;27;45339;-68
2023/01/29 01:15:14;;;;;;;17.13;10.48;;;14.30;50.20;;;;;;5100883;27;45206;-68
2023/01/29 01:17:40;;;;;;;18.90;10.45;;;14.30;50.10;;;;;;5099695;27;45567;-68
2023/01/29 01:20:08;;;;;;;15.93;10.05;;;14.30;50.00;;;;;;5090126;27;45516;-68
2023/01/29 01:22:37;;;;;;;14.25;9.45;;;14.30;49.90;;;;;;5088976;27;45468;-68
2023/01/29 01:25:04;;;;;;;18.52;10.68;;;14.30;49.60;;;;;;5091920;27;45423;-69
2023/01/29 01:27:31;;;;;;;17.45;10.82;;;14.20;49.70;;;;;;5091994;27;45419;-68
2023/01/29 01:29:57;;;;;;;19.08;10.98;;;14.30;49.60;;;;;;5089208;27;45323;-68
2023/01/29 01:32:24;;;;;;;17.17;10.95;;;14.20;49.40;;;;;;5098082;27;45523;-68
2023/01/29 01:34:52;;;;;;;15.45;10.35;;;14.20;49.40;;;;;;5095892;27;45586;-66
2023/01/29 01:37:19;;;;;;;19.60;10.48;;;14.20;49.60;;;;;;5094943;27;46658;-66
2023/01/29 01:39:47;;;;;;;15.90;10.20;;;14.20;49.40;;;;;;5099888;27;45312;-66
2023/01/29 01:42:14;;;;;;;18.48;10.38;;;14.20;49.50;;;;;;5103694;27;45509;-67
2023/01/29 01:45:00;;;;;;;18.40;10.75;;;14.20;49.50;;;;;;5093922;27;45454;-66
2023/01/29 01:47:38;;;;;;;18.65;10.32;;;14.20;49.50;;;;;;5095550;27;45509;-66
2023/01/29 01:50:09;;;;;;;15.65;10.25;;;14.20;49.50;;;;;;5097678;27;45404;-66
2023/01/29 01:52:40;;;;;;;15.70;10.27;;;14.20;49.50;;;;;;5091461;27;45675;-67
2023/01/29 01:55:11;;;;;;;15.98;10.38;;;14.20;49.50;;;;;;5086757;27;45373;-66
2023/01/29 01:57:39;;;;;;;16.30;10.15;;;14.20;49.70;;;;;;5087332;27;47084;-67
2023/01/29 02:00:10;;;;;;;17.52;10.50;;;14.20;49.60;;;;;;5087308;27;45368;-66
2023/01/29 02:10:55;;;;;;;16.98;10.00;;;14.20;49.30;;;;;;5086293;27;45303;-68
2023/01/29 02:13:22;;;;;;;17.35;10.25;;;14.20;49.20;;;;;;5091812;27;45374;-68
2023/01/29 02:15:49;;;;;;;18.83;10.52;;;14.20;48.70;;;;;;5086945;27;45552;-68
2023/01/29 02:18:18;;;;;;;16.85;10.65;;;14.20;48.90;;;;;;5094080;27;48040;-68
2023/01/29 02:20:54;;;;;;;18.95;10.55;;;14.20;48.50;;;;;;5084822;27;45904;-67
2023/01/29 02:23:42;;;;;;;17.45;10.05;;;14.20;48.50;;;;;;5085794;27;45551;-69
2023/01/29 02:26:21;;;;;;;15.27;10.23;;;14.20;48.80;;;;;;5087858;27;45551;-68
2023/01/29 02:28:54;;;;;;;17.63;9.93;;;14.20;48.90;;;;;;5089460;27;48102;-68
2023/01/29 02:31:29;;;;;;;15.60;10.07;;;14.20;48.50;;;;;;5100979;27;45896;-68
2023/01/29 02:34:06;;;;;;;15.20;10.27;;;14.20;48.60;;;;;;5091994;27;45339;-68
2023/01/29 02:36:40;;;;;;;14.88;9.50;;;14.10;48.80;;;;;;5098493;27;45484;-68
2023/01/29 02:39:15;;;;;;;16.10;10.23;;;14.10;48.70;;;;;;5099556;27;45440;-68
2023/01/29 02:41:45;;;;;;;14.05;10.13;;;14.20;48.80;;;;;;5094890;27;45360;-68
2023/01/29 02:44:21;;;;;;;15.43;10.05;;;14.20;48.90;;;;;;5095256;27;45412;-68
2023/01/29 02:46:56;;;;;;;15.98;10.40;;;14.20;48.90;;;;;;5096597;27;45433;-69
2023/01/29 02:49:31;;;;;;;17.38;11.05;;;14.20;48.90;;;;;;5099816;27;48347;-68
2023/01/29 02:52:02;;;;;;;15.77;10.05;;;14.20;48.90;;;;;;5100122;27;45292;-68
2023/01/29 02:54:33;;;;;;;16.83;10.20;;;14.20;49.00;;;;;;5100731;27;45348;-68
2023/01/29 02:57:05;;;;;;;18.23;10.90;;;14.30;48.60;;;;;;5099795;27;45571;-68
2023/01/29 02:59:38;;;;;;;17.33;10.68;;;14.20;48.50;;;;;;5091030;27;45553;-68
2023/01/29 03:02:10;;;;;;;17.08;10.50;;;14.20;48.50;;;;;;5091446;27;45365;-66
2023/01/29 03:04:44;;;;;;;18.15;11.05;;;14.20;48.50;;;;;;5095848;27;45355;-67
2023/01/29 03:07:39;;;;;;;19.88;11.55;;;14.20;48.50;;;;;;5097553;27;45479;-66
2023/01/29 03:10:09;;;;;;;17.00;11.15;;;14.20;48.80;;;;;;5096942;27;45421;-66
2023/01/29 03:12:40;;;;;;;17.92;11.05;;;14.20;48.50;;;;;;5101905;27;45512;-66
2023/01/29 03:15:15;;;;;;;17.20;10.65;;;14.20;48.60;;;;;;5097311;27;45362;-66
2023/01/29 03:17:46;;;;;;;19.80;11.00;;;14.20;48.50;;;;;;5093849;27;45539;-66
2023/01/29 03:20:18;;;;;;;18.60;10.98;;;14.10;48.50;;;;;;5100653;27;45426;-66
2023/01/29 03:22:51;;;;;;;16.67;9.98;;;14.10;49.70;;;;;;5093409;27;45255;-66
2023/01/29 03:33:45;;;;;;;17.42;11.48;;;14.20;48.50;;;;;;5087295;27;45362;-66
2023/01/29 03:36:18;;;;;;;18.38;10.45;;;14.20;48.90;;;;;;5092724;27;45498;-66
2023/01/29 03:38:45;;;;;;;16.33;10.23;;;14.20;48.60;;;;;;5095184;27;45548;-66
2023/01/29 03:41:22;;;;;;;18.15;10.80;;;14.20;48.50;;;;;;5105138;27;45471;-66
2023/01/29 03:43:56;;;;;;;18.02;10.70;;;14.20;48.50;;;;;;5105948;27;45459;-66
2023/01/29 03:46:30;;;;;;;17.80;10.20;;;14.20;48.50;;;;;;5105139;27;45498;-67
2023/01/29 03:49:07;;;;;;;16.80;10.98;;;14.20;48.50;;;;;;5105412;27;45411;-66
2023/01/29 03:51:37;;;;;;;17.02;10.77;;;14.20;48.50;;;;;;5105043;27;48291;-66
2023/01/29 03:54:12;;;;;;;16.17;10.48;;;14.20;48.50;;;;;;5100569;27;45486;-66
2023/01/29 03:56:54;;;;;;;18.75;10.82;;;14.20;48.50;;;;;;5104401;27;45358;-65
2023/01/29 03:59:32;;;;;;;16.70;10.25;;;14.20;48.50;;;;;;5105676;27;45273;-66
2023/01/29 04:02:03;;;;;;;17.60;10.57;;;14.20;49.70;;;;;;5105453;27;48356;-66
2023/01/29 04:04:35;;;;;;;19.15;11.00;;;14.20;48.50;;;;;;5104511;27;45421;-66
2023/01/29 04:07:06;;;;;;;18.70;11.05;;;14.10;48.40;;;;;;5104559;27;45462;-66
2023/01/29 04:09:37;;;;;;;18.58;10.90;;;14.10;48.40;;;;;;5104808;27;45301;-66
2023/01/29 04:12:08;;;;;;;18.38;10.77;;;14.10;48.40;;;;;;5099494;27;48111;-66
2023/01/29 04:14:37;;;;;;;20.20;11.50;;;14.10;48.40;;;;;;5100038;27;45937;-66
2023/01/29 04:17:18;;;;;;;18.42;11.45;;;14.10;48.40;;;;;;5104276;27;45318;-66
2023/01/29 04:19:46;;;;;;;17.20;10.95;;;14.10;48.00;;;;;;5097846;27;45432;-66
2023/01/29 04:22:17;;;;;;;21.23;10.63;;;14.10;46.60;;;;;;5102266;27;47485;-66
2023/01/29 04:24:44;;;;;;;17.23;11.55;;;14.00;45.60;;;;;;5097080;27;45333;-67
2023/01/29 04:27:23;;;;;;;19.08;11.90;;;14.00;45.60;;;;;;5099141;27;45404;-66
2023/01/29 04:30:10;;;;;;;17.88;11.63;;;14.00;45.10;;;;;;5098152;27;45524;-67
2023/01/29 04:32:50;;;;;;;15.98;10.07;;;14.00;44.50;;;;;;5104281;27;47617;-65
2023/01/29 04:35:28;;;;;;;20.05;11.27;;;14.10;47.80;;;;;;5104595;27;45312;-66
2023/01/29 04:38:03;;;;;;;16.73;11.27;;;14.00;48.30;;;;;;5087271;27;45245;-66
2023/01/29 04:40:39;;;;;;;17.38;11.73;;;14.00;47.80;;;;;;5102635;27;45435;-65
2023/01/29 04:43:10;;;;;;;19.85;11.75;;;13.90;46.80;;;;;;5104498;27;45423;-67
2023/01/29 04:45:48;;;;;;;20.17;11.88;;;13.90;45.90;;;;;;5098426;27;45486;-66
2023/01/29 04:48:22;;;;;;;21.00;12.23;;;13.80;45.20;;;;;;5104429;27;45359;-66
2023/01/29 04:50:58;;;;;;;18.95;12.25;;;13.80;45.10;;;;;;5096891;27;45308;-65
2023/01/29 04:53:35;;;;;;;18.77;11.73;;;13.80;44.80;;;;;;5092350;27;45377;-66
2023/01/29 04:56:10;;;;;;;18.60;11.30;;;13.80;44.80;;;;;;5091387;27;45423;-66
2023/01/29 04:58:41;;;;;;;20.27;12.15;;;13.80;44.40;;;;;;5092817;27;45422;-66
2023/01/29 05:01:13;;;;;;;17.83;12.25;;;13.80;44.40;;;;;;5095735;27;45403;-67
2023/01/29 05:03:44;;;;;;;18.13;11.88;;;13.80;44.10;;;;;;5091268;27;46706;-66
2023/01/29 05:06:12;;;;;;;18.05;11.65;;;13.80;44.40;;;;;;5089750;27;45395;-66
2023/01/29 05:08:41;;;;;;;19.00;12.32;;;13.80;43.90;;;;;;5104342;27;45281;-66
2023/01/29 05:11:08;;;;;;;19.02;12.25;;;13.80;43.60;;;;;;5104074;27;45537;-66
2023/01/29 05:13:38;;;;;;;19.05;12.93;;;13.80;43.30;;;;;;5096244;27;45480;-66
2023/01/29 05:16:12;;;;;;;19.88;12.60;;;13.80;43.00;;;;;;5096504;27;45310;-65
2023/01/29 05:18:40;;;;;;;17.23;11.20;;;13.80;42.80;;;;;;5098804;27;45449;-66
2023/01/29 05:21:09;;;;;;;20.58;13.18;;;13.80;43.10;;;;;;5101400;27;45580;-65
2023/01/29 05:23:36;;;;;;;19.30;11.85;;;13.90;43.00;;;;;;5103538;27;46461;-66
2023/01/29 05:26:04;;;;;;;19.48;12.57;;;13.80;42.90;;;;;;5096684;27;45345;-66
2023/01/29 05:28:30;;;;;;;18.60;11.95;;;13.80;43.00;;;;;;5103771;27;45313;-66
2023/01/29 05:30:57;;;;;;;20.13;12.43;;;13.80;43.20;;;;;;5103694;27;45486;-66
2023/01/29 05:33:25;;;;;;;17.48;11.75;;;13.80;43.10;;;;;;5103368;27;46260;-66
2023/01/29 05:35:54;;;;;;;20.90;13.15;;;13.80;42.90;;;;;;5098607;27;45273;-66
2023/01/29 05:38:21;;;;;;;19.40;11.88;;;13.80;43.10;;;;;;5103374;27;45477;-66
2023/01/29 05:40:48;;;;;;;17.83;11.48;;;13.80;43.10;;;;;;5103617;27;45290;-65
2023/01/29 05:43:17;;;;;;;20.58;12.60;;;13.80;43.20;;;;;;5104040;27;45393;-67
2023/01/29 05:45:51;;;;;;;20.23;12.32;;;13.80;43.10;;;;;;5102936;27;45320;-65
2023/01/29 05:48:18;;;;;;;18.67;12.15;;;13.80;42.90;;;;;;5103129;27;45468;-66
2023/01/29 05:50:45;;;;;;;19.92;11.88;;;13.80;42.90;;;;;;5103608;27;45471;-65
2023/01/29 05:53:13;;;;;;;20.10;12.70;;;13.80;42.80;;;;;;5102532;27;46630;-66
2023/01/29 05:55:40;;;;;;;18.80;11.43;;;13.80;42.90;;;;;;5102726;27;45445;-66
2023/01/29 05:58:06;;;;;;;20.17;11.90;;;13.80;42.70;;;;;;5095226;27;45392;-66
2023/01/29 06:00:33;;;;;;;20.83;12.38;;;13.80;42.50;;;;;;5100868;27;45391;-66
2023/01/29 06:03:00;;;;;;;17.45;11.45;;;13.80;42.70;;;;;;5101522;27;47676;-66
2023/01/29 06:05:27;;;;;;;19.42;11.68;;;13.80;42.60;;;;;;5102849;27;45444;-65
2023/01/29 06:07:53;;;;;;;18.52;11.60;;;13.80;42.50;;;;;;5102859;27;45283;-66
2023/01/29 06:10:22;;;;;;;18.38;12.13;;;13.80;42.50;;;;;;5091201;27;45462;-66
2023/01/29 06:12:48;;;;;;;18.25;11.82;;;13.90;42.20;;;;;;5101722;27;48432;-66
2023/01/29 06:15:15;;;;;;;19.48;11.77;;;13.90;42.20;;;;;;5099165;27;45587;-67
2023/01/29 06:17:42;;;;;;;19.85;11.68;;;13.80;42.00;;;;;;5103358;27;45246;-65
2023/01/29 06:20:10;;;;;;;20.02;11.50;;;13.80;42.00;;;;;;5102463;27;45296;-65
2023/01/29 06:22:37;;;;;;;19.45;12.52;;;13.80;42.00;;;;;;5101803;27;45430;-66
2023/01/29 06:25:04;;;;;;;17.25;11.25;;;13.80;42.00;;;;;;5102902;27;45271;-65
2023/01/29 06:27:32;;;;;;;19.48;11.15;;;13.80;42.10;;;;;;5095307;27;45368;-66
2023/01/29 06:29:59;;;;;;;17.75;11.80;;;13.80;42.30;;;;;;5103052;27;45276;-65
2023/01/29 06:32:27;;;;;;;21.15;12.57;;;13.80;42.30;;;;;;5102431;27;47274;-66
2023/01/29 06:34:53;;;;;;;19.63;12.10;;;13.80;42.50;;;;;;5103711;27;45500;-65
2023/01/29 06:37:20;;;;;;;17.58;10.75;;;13.80;42.30;;;;;;5092947;27;45348;-65
2023/01/29 06:39:47;;;;;;;17.83;11.85;;;13.80;42.40;;;;;;5090801;27;45408;-65
2023/01/29 06:42:14;;;;;;;18.92;11.30;;;13.80;42.40;;;;;;5098811;27;45254;-65
2023/01/29 06:44:42;;;;;;;18.20;11.27;;;13.80;42.40;;;;;;5094710;27;45234;-66
2023/01/29 06:47:09;;;;;;;17.23;11.52;;;13.80;42.50;;;;;;5101945;27;45273;-66
2023/01/29 06:49:35;;;;;;;15.85;10.52;;;13.90;42.40;;;;;;5093861;27;45503;-66
2023/01/29 06:52:02;;;;;;;15.88;10.68;;;14.00;42.90;;;;;;5100723;27;45328;-65
2023/01/29 06:54:29;;;;;;;18.25;10.82;;;14.10;43.70;;;;;;5092833;27;45383;-65
2023/01/29 06:56:56;;;;;;;15.73;9.90;;;14.10;44.00;;;;;;5095361;27;45407;-66
2023/01/29 06:59:22;;;;;;;16.88;9.98;;;14.20;44.20;;;;;;5097904;27;45593;-66
2023/01/29 07:01:51;;;;;;;14.65;9.50;;;14.20;44.40;;;;;;5094389;27;46236;-66
2023/01/29 07:04:17;;;;;;;16.25;10.40;;;14.20;44.60;;;;;;5094521;27;45409;-65
2023/01/29 07:06:44;;;;;;;14.88;10.35;;;14.20;44.90;;;;;;5099124;27;45273;-66
2023/01/29 07:09:12;;;;;;;15.85;10.45;;;14.20;45.10;;;;;;5103356;27;45561;-65
2023/01/29 07:11:38;;;;;;;16.88;10.57;;;14.20;45.20;;;;;;5102053;27;45485;-66
2023/01/29 07:14:06;;;;;;;15.20;10.45;;;14.20;45.40;;;;;;5092429;27;45418;-65
2023/01/29 07:16:33;;;;;;;18.50;11.75;;;14.20;45.60;;;;;;5104244;27;45453;-65
2023/01/29 07:19:01;;;;;;;17.90;11.18;;;14.20;45.40;;;;;;5099038;27;45557;-66
2023/01/29 07:21:28;;;;;;;18.88;12.05;;;14.20;44.90;;;;;;5113179;27;45388;-67
2023/01/29 07:23:55;;;;;;;17.67;11.30;;;14.20;44.80;;;;;;5100178;27;45359;-68
2023/01/29 07:26:21;;;;;;;17.52;10.85;;;14.10;44.10;;;;;;5102601;27;45351;-68
2023/01/29 07:28:48;;;;;;;17.15;11.38;;;14.10;43.50;;;;;;5105868;27;45210;-68
2023/01/29 07:31:15;;;;;;;17.20;11.13;;;14.10;43.10;;;;;;5104867;27;48243;-68
2023/01/29 07:33:43;;;;;;;17.95;11.13;;;14.10;42.90;;;;;;5096470;27;45416;-67
2023/01/29 07:36:12;;;;;;;20.02;11.98;;;14.10;42.70;;;;;;5104796;27;45573;-67
2023/01/29 07:38:39;;;;;;;14.98;10.32;;;14.10;42.50;;;;;;5105311;27;45386;-68
2023/01/29 07:41:06;;;;;;;19.02;11.60;;;14.10;42.50;;;;;;5104998;27;46310;-67
2023/01/29 07:43:33;;;;;;;17.60;11.63;;;14.20;42.40;;;;;;5104391;27;45473;-67
2023/01/29 07:46:02;;;;;;;17.98;11.82;;;14.10;42.20;;;;;;5099616;27;45297;-67
2023/01/29 07:48:28;;;;;;;17.50;11.02;;;14.10;42.00;;;;;;5104808;27;45326;-68
2023/01/29 07:50:57;;;;;;;18.02;11.25;;;14.10;41.90;;;;;;5104515;27;47555;-68
2023/01/29 07:53:25;;;;;;;18.15;11.73;;;14.10;43.00;;;;;;5106343;27;45427;-68
2023/01/29 07:55:52;;;;;;;17.60;10.98;;;14.10;41.80;;;;;;5104668;27;45348;-66
2023/01/29 07:58:19;;;;;;;16.08;10.50;;;14.10;42.50;;;;;;5105524;27;45401;-66
2023/01/29 08:00:46;;;;;;;17.15;11.00;;;14.10;44.50;;;;;;5108587;27;45445;-65
2023/01/29 08:03:15;;;;;;;19.05;12.32;;;14.10;44.30;;;;;;5104280;27;45382;-65
2023/01/29 08:05:42;;;;;;;17.60;11.38;;;14.00;43.70;;;;;;5096042;27;45359;-65
2023/01/29 08:08:09;;;;;;;18.90;12.10;;;14.00;43.30;;;;;;5100425;27;45424;-65
2023/01/29 08:10:39;;;;;;;19.95;12.38;;;14.00;43.10;;;;;;5095635;27;45348;-65
2023/01/29 08:13:07;;;;;;;22.65;13.25;;;14.00;43.00;;;;;;5101457;27;45467;-65
2023/01/29 08:15:34;;;;;;;21.10;12.35;;;14.00;42.90;;;;;;5104054;27;45330;-66
2023/01/29 08:18:01;;;;;;;22.23;13.45;;;14.00;42.80;;;;;;5104551;27;45603;-66
2023/01/29 08:20:28;;;;;;;19.00;12.73;;;14.00;42.70;;;;;;5104433;27;45287;-65
2023/01/29 08:23:00;;;;;;;19.63;12.23;;;14.00;42.90;;;;;;5103445;27;45485;-66
2023/01/29 08:25:26;;;;;;;20.40;12.82;;;14.00;42.40;;;;;;5101348;27;45486;-66
2023/01/29 08:27:55;;;;;;;20.85;12.80;;;14.00;42.20;;;;;;5098426;27;45453;-66
2023/01/29 08:30:22;;;;;;;23.23;12.90;;;14.10;42.20;;;;;;5106031;27;46253;-66
2023/01/29 08:32:49;;;;;;;19.13;12.15;;;14.10;42.10;;;;;;5105452;27;45958;-66
2023/01/29 08:35:16;;;;;;;20.15;12.57;;;14.10;42.20;;;;;;5101437;27;45341;-66
2023/01/29 08:37:43;;;;;;;19.20;12.50;;;14.10;42.10;;;;;;5098015;27;45403;-66
2023/01/29 08:40:12;;;;;;;21.10;13.30;;;14.10;42.00;;;;;;5101660;27;46420;-66
2023/01/29 08:42:40;;;;;;;18.80;12.05;;;14.10;42.00;;;;;;5099781;27;45347;-65
2023/01/29 08:45:09;;;;;;;20.35;12.68;;;14.00;41.90;;;;;;5104354;27;45338;-66
2023/01/29 08:47:36;;;;;;;21.00;12.93;;;14.00;41.90;;;;;;5109403;27;45564;-66
2023/01/29 08:50:03;;;;;;;22.80;13.68;;;14.00;42.00;;;;;;5104905;27;45488;-65
2023/01/29 08:52:30;;;;;;;22.55;14.77;;;14.00;41.90;;;;;;5102405;27;45428;-65
2023/01/29 08:54:57;;;;;;;20.63;13.77;;;14.00;42.90;;;;;;5104176;27;45269;-66
2023/01/29 08:57:23;;;;;;;21.70;13.77;;;14.00;42.50;;;;;;5095410;27;45559;-66
2023/01/29 08:59:50;;;;;;;21.08;13.25;;;14.00;42.50;;;;;;5092996;27;46276;-65
2023/01/29 09:02:18;;;;;;;21.35;13.27;;;14.00;42.40;;;;;;5094684;27;45540;-65
2023/01/29 09:04:45;;;;;;;24.75;14.02;;;14.00;42.30;;;;;;5110534;27;45624;-65
2023/01/29 09:07:12;;;;;;;22.42;13.23;;;14.00;42.20;;;;;;5094486;27;45301;-66
2023/01/29 09:09:38;;;;;;;21.50;13.55;;;14.00;42.20;;;;;;5085117;27;46296;-65
2023/01/29 09:12:06;;;;;;;19.48;12.40;;;14.00;42.30;;;;;;5086479;27;45384;-65
2023/01/29 09:14:33;;;;;;;20.92;12.73;;;14.00;42.10;;;;;;5091721;27;45445;-66
2023/01/29 09:17:00;;;;;;;19.13;13.02;;;14.10;42.10;;;;;;5090005;27;45468;-66
2023/01/29 09:19:28;;;;;;;21.50;12.20;;;14.10;42.00;;;;;;5086234;27;45346;-66
2023/01/29 09:21:54;;;;;;;23.98;13.68;;;14.10;42.00;;;;;;5094084;27;45435;-65
2023/01/29 09:24:21;;;;;;;21.17;12.90;;;14.10;42.20;;;;;;5087666;27;45420;-67
2023/01/29 09:26:48;;;;;;;20.10;12.93;;;14.10;42.20;;;;;;5087520;27;45531;-65
2023/01/29 09:29:15;;;;;;;19.92;12.15;;;14.10;42.10;;;;;;5089988;27;48759;-65
2023/01/29 09:31:41;;;;;;;22.15;13.00;;;14.10;42.40;;;;;;5088338;27;45468;-66
2023/01/29 09:34:08;;;;;;;20.23;13.00;;;14.00;42.20;;;;;;5092369;27;45326;-66
2023/01/29 09:36:36;;;;;;;20.05;12.07;;;14.00;42.20;;;;;;5082522;27;45625;-65
2023/01/29 09:39:03;;;;;;;20.05;12.63;;;14.00;42.20;;;;;;5098935;27;46080;-67
2023/01/29 09:41:43;;;;;;;20.88;12.73;;;14.00;42.10;;;;;;5085220;27;45589;-66
2023/01/29 09:44:18;;;;;;;23.83;13.45;;;14.00;42.10;;;;;;5111180;27;45478;-66
2023/01/29 09:46:47;;;;;;;19.52;12.10;;;14.00;42.20;;;;;;5082850;27;45383;-66
2023/01/29 09:49:20;;;;;;;19.85;11.88;;;14.00;42.10;;;;;;5094181;27;45331;-66
2023/01/29 09:51:52;;;;;;;20.50;12.35;;;14.00;42.10;;;;;;5088105;27;45457;-66
2023/01/29 09:54:24;;;;;;;17.52;11.45;;;14.00;42.20;;;;;;5097889;27;45297;-66
2023/01/29 09:56:54;;;;;;;20.05;12.52;;;14.00;42.10;;;;;;5082392;27;45392;-68
2023/01/29 09:59:23;;;;;;;20.40;12.50;;;14.00;42.10;;;;;;5084040;27;45480;-68
2023/01/29 10:02:02;;;;;;;14.70;9.63;;;14.00;42.20;;;;;;5086338;27;45413;-65
2023/01/29 10:04:48;;;;;;;21.90;12.63;;;14.10;44.20;;;;;;5104784;27;45806;-65
2023/01/29 10:07:30;;;;;;;19.90;11.63;;;14.10;45.20;;;;;;5096213;27;45250;-65
2023/01/29 10:10:18;;;;;;;19.70;12.25;;;14.10;44.50;;;;;;5087389;27;47521;-66
2023/01/29 10:12:58;;;;;;;19.73;12.23;;;14.10;44.10;;;;;;5089806;27;45382;-65
2023/01/29 10:15:46;;;;;;;18.38;11.00;;;14.10;43.70;;;;;;5082599;27;45242;-66
2023/01/29 10:18:41;;;;;;;19.20;10.95;;;14.10;43.40;;;;;;5090979;27;45306;-66
2023/01/29 10:21:27;;;;;;;20.77;12.60;;;14.10;43.30;;;;;;5094819;27;45311;-66
2023/01/29 10:24:03;;;;;;;20.85;11.98;;;14.00;43.10;;;;;;5080027;27;45401;-65
2023/01/29 10:26:33;;;;;;;19.17;11.98;;;14.00;43.10;;;;;;5078836;27;45309;-66
2023/01/29 10:29:02;;;;;;;18.48;11.82;;;14.00;43.00;;;;;;5089194;27;45378;-66
2023/01/29 10:31:31;;;;;;;19.30;12.43;;;14.00;43.10;;;;;;5090380;27;46345;-66
2023/01/29 10:34:04;;;;;;;19.48;10.95;;;14.00;43.00;;;;;;5086226;27;45521;-66
2023/01/29 10:36:34;;;;;;;19.90;11.52;;;14.00;43.00;;;;;;5078589;27;45316;-66
2023/01/29 10:39:02;;;;;;;19.73;12.30;;;14.00;42.90;;;;;;5086442;27;45203;-66
2023/01/29 10:41:57;;;;;;;18.70;11.38;;;14.00;42.90;;;;;;5083177;27;47165;-65
2023/01/29 10:44:36;;;;;;;19.83;12.20;;;13.90;42.80;;;;;;5082239;27;45341;-66
2023/01/29 10:47:28;;;;;;;23.45;12.32;;;14.00;42.80;;;;;;5082290;27;45338;-66
2023/01/29 10:50:13;;;;;;;19.38;12.13;;;14.00;42.60;;;;;;5093753;27;45421;-66
2023/01/29 10:52:58;;;;;;;18.20;11.43;;;14.00;42.60;;;;;;5105838;27;45331;-67
2023/01/29 10:55:39;;;;;;;18.90;11.38;;;14.00;43.00;;;;;;5105531;27;45273;-67
2023/01/29 10:58:17;;;;;;;17.83;11.07;;;14.10;43.10;;;;;;5096675;27;45290;-67
2023/01/29 11:00:45;;;;;;;19.50;10.77;;;14.10;43.30;;;;;;5100549;27;45322;-67
2023/01/29 11:03:16;;;;;;;17.30;10.88;;;14.10;43.20;;;;;;5101810;27;47337;-68
2023/01/29 11:05:50;;;;;;;19.48;11.65;;;14.10;43.20;;;;;;5094552;27;45583;-67
2023/01/29 11:08:20;;;;;;;18.00;11.73;;;14.10;43.20;;;;;;5106508;27;45392;-67
2023/01/29 11:10:54;;;;;;;19.42;11.18;;;14.10;43.00;;;;;;5107118;27;45534;-67
2023/01/29 11:13:24;;;;;;;18.95;12.20;;;14.10;42.80;;;;;;5102755;27;46570;-67
2023/01/29 11:15:53;;;;;;;20.05;12.25;;;14.00;42.60;;;;;;5100336;27;45344;-67
2023/01/29 11:18:19;;;;;;;18.20;11.30;;;14.00;42.50;;;;;;5103797;27;45351;-67
2023/01/29 11:20:46;;;;;;;19.52;11.90;;;14.00;42.70;;;;;;5108684;27;45585;-67
2023/01/29 11:23:27;;;;;;;19.55;12.43;;;14.00;42.70;;;;;;5105811;27;46296;-65
2023/01/29 11:25:57;;;;;;;18.25;11.32;;;14.00;42.70;;;;;;5098640;27;45241;-66
2023/01/29 11:28:38;;;;;;;19.00;11.88;;;14.00;42.70;;;;;;5106349;27;45321;-66
2023/01/29 11:31:17;;;;;;;18.60;11.60;;;14.00;42.60;;;;;;5107053;27;45259;-66
2023/01/29 11:33:45;;;;;;;20.25;11.77;;;14.00;42.70;;;;;;5105414;27;47113;-65
2023/01/29 11:36:32;;;;;;;19.50;11.40;;;14.00;42.90;;;;;;5106259;27;45337;-65
2023/01/29 11:39:14;;;;;;;16.48;10.85;;;14.00;43.30;;;;;;5105979;27;45504;-65
2023/01/29 11:41:48;;;;;;;17.40;11.45;;;14.00;43.50;;;;;;5102666;27;45592;-65
2023/01/29 11:44:27;;;;;;;19.88;11.30;;;14.00;43.70;;;;;;5105753;27;45412;-66
2023/01/29 11:46:54;;;;;;;19.45;11.23;;;14.10;43.40;;;;;;5100857;27;45436;-66
2023/01/29 11:49:32;;;;;;;17.10;10.32;;;14.10;43.40;;;;;;5100086;27;45331;-65
2023/01/29 11:52:01;;;;;;;18.13;10.85;;;14.10;43.40;;;;;;5101824;27;45465;-65
2023/01/29 11:54:33;;;;;;;18.10;11.00;;;14.10;43.40;;;;;;5111331;27;47057;-66
2023/01/29 11:57:02;;;;;;;21.50;11.50;;;14.10;43.20;;;;;;5104591;27;45523;-65
2023/01/29 11:59:49;;;;;;;17.23;11.55;;;14.10;43.20;;;;;;5112360;27;45306;-65
2023/01/29 12:02:34;;;;;;;17.55;10.82;;;14.10;43.20;;;;;;5108395;27;45356;-66
2023/01/29 12:05:05;;;;;;;15.55;10.35;;;14.10;43.20;;;;;;5109299;27;46237;-65
2023/01/29 12:07:34;;;;;;;16.20;9.90;;;14.10;44.40;;;;;;5098546;27;45323;-65
2023/01/29 12:10:02;;;;;;;17.80;10.60;;;14.10;45.10;;;;;;5110803;27;45315;-65
2023/01/29 12:12:38;;;;;;;17.13;11.18;;;14.10;45.50;;;;;;5105135;27;45427;-66
2023/01/29 12:15:16;;;;;;;17.70;10.48;;;14.10;44.80;;;;;;5106103;27;45473;-66
2023/01/29 12:17:51;;;;;;;16.90;10.75;;;14.10;44.70;;;;;;5107775;27;45445;-65
2023/01/29 12:20:25;;;;;;;16.40;10.20;;;14.00;44.40;;;;;;5110303;27;45201;-66
2023/01/29 12:22:57;;;;;;;16.45;10.88;;;14.00;44.40;;;;;;5102030;27;45402;-65
2023/01/29 12:25:38;;;;;;;16.35;10.13;;;14.00;44.40;;;;;;5110980;27;46629;-66
2023/01/29 12:28:17;;;;;;;17.08;10.45;;;14.00;44.30;;;;;;5107601;27;45403;-65
2023/01/29 12:30:55;;;;;;;19.60;11.18;;;14.00;44.30;;;;;;5101859;27;45526;-66
2023/01/29 12:33:29;;;;;;;17.98;10.73;;;14.00;44.00;;;;;;5102528;27;45361;-66
2023/01/29 12:36:04;;;;;;;18.25;10.85;;;14.10;43.90;;;;;;5102100;27;47153;-65
2023/01/29 12:38:31;;;;;;;16.98;10.80;;;14.10;43.70;;;;;;5104354;27;45444;-65
2023/01/29 12:41:04;;;;;;;15.43;9.55;;;14.10;43.50;;;;;;5104079;27;45340;-65
2023/01/29 12:43:38;;;;;;;16.95;10.27;;;14.10;43.30;;;;;;5109776;27;45519;-66
2023/01/29 12:46:12;;;;;;;16.02;10.20;;;14.10;43.30;;;;;;5101249;27;46075;-65
2023/01/29 12:48:43;;;;;;;17.67;10.93;;;14.10;43.10;;;;;;5105575;27;45537;-66
2023/01/29 12:51:17;;;;;;;17.40;10.15;;;14.10;43.10;;;;;;5106089;27;45311;-66
2023/01/29 12:53:50;;;;;;;17.52;10.23;;;14.10;43.10;;;;;;5105681;27;45485;-66
2023/01/29 12:56:26;;;;;;;17.83;10.27;;;14.10;43.20;;;;;;5107147;27;45297;-65
2023/01/29 12:58:56;;;;;;;18.40;11.30;;;14.10;43.20;;;;;;5101058;27;45359;-65
2023/01/29 13:01:30;;;;;;;16.30;9.70;;;14.10;43.20;;;;;;5107044;27;45510;-67
2023/01/29 13:04:02;;;;;;;16.17;10.18;;;14.10;43.20;;;;;;5105308;27;45563;-66
2023/01/29 13:06:32;;;;;;;16.23;10.25;;;14.10;43.20;;;;;;5103098;27;46381;-66
2023/01/29 13:09:02;;;;;;;20.05;9.95;;;14.10;43.30;;;;;;5101471;27;45577;-65